Time;durP1;ratioP1;P1;durP2;ratioP2;P2;SDS_P1;SDS_P2;PMS_P1;PMS_P2;Temp;Humidity;BMP_temperature;BMP_pressure;BME280_temperature;BME280_humidity;BME280_pressure;Samples;Min_cycle;Max_cycle;Signal;HPM_P1;HPM_P2
2024/02/07 00:10:35;;;;;;;16.02;3.33;;;;;;;5.05;100.00;99681.44;4878931;29;20100;-92
2024/02/07 00:14:10;;;;;;;9.63;2.50;;;;;;;5.05;100.00;99691.91;4949852;28;20437;-92
2024/02/07 00:17:26;;;;;;;9.77;2.50;;;;;;;5.02;100.00;99679.06;4956804;28;20649;-95
2024/02/07 00:20:10;;;;;;;14.73;2.97;;;;;;;5.13;100.00;99668.53;4956860;28;20034;-94
2024/02/07 00:27:25;;;;;;;15.00;2.75;;;;;;;5.16;100.00;99677.94;4954724;28;20041;-96
2024/02/07 00:31:25;;;;;;;13.13;2.67;;;;;;;4.95;100.00;99668.28;4947123;28;20050;-96
2024/02/07 00:34:33;;;;;;;17.02;2.47;;;;;;;4.89;100.00;99667.00;4961127;28;20058;-95
2024/02/07 00:45:48;;;;;;;8.48;2.30;;;;;;;5.19;100.00;99656.72;4859931;29;20045;-94
2024/02/07 00:48:16;;;;;;;8.07;1.98;;;;;;;5.25;100.00;99671.09;4894699;29;20128;-95
2024/02/07 00:54:52;;;;;;;11.50;3.33;;;;;;;5.32;100.00;99664.34;4966624;28;20042;-95
2024/02/07 01:06:11;;;;;;;15.93;3.90;;;;;;;5.39;100.00;99657.66;4889447;29;20080;-95
2024/02/07 01:09:34;;;;;;;;;;;;;;;;;;;;;
2024/02/07 01:18:01;;;;;;;;;;;;;;;;;;;;;
2024/02/07 01:21:36;;;;;;;15.27;2.83;;;;;;;5.16;100.00;99673.50;4844425;29;20058;-95
2024/02/07 01:24:55;;;;;;;;;;;;;;;5.07;100.00;99666.44;4814397;29;20164;-95
2024/02/07 01:28:58;;;;;;;9.45;2.33;;;;;;;5.16;100.00;99670.88;4853879;29;19923;-95
2024/02/07 01:32:25;;;;;;;8.95;2.78;;;;;;;5.11;100.00;99665.22;4824540;29;20057;-95
2024/02/07 01:49:01;;;;;;;10.55;3.45;;;;;;;4.92;100.00;99673.78;4910550;29;20145;-94
2024/02/07 01:52:37;;;;;;;;;;;;;;;;;;;;;
2024/02/07 01:55:48;;;;;;;11.80;3.17;;;;;;;4.87;100.00;99670.69;4948978;29;20137;-95
2024/02/07 01:59:48;;;;;;;;;;;;;;;;;;;;;
2024/02/07 02:08:20;;;;;;;7.47;3.08;;;;;;;4.70;100.00;99678.97;4973709;28;20074;-96
2024/02/07 02:12:11;;;;;;;8.40;3.83;;;;;;;4.67;100.00;99675.78;4959251;28;20038;-95
2024/02/07 02:15:19;;;;;;;11.43;3.00;;;;;;;4.57;100.00;99681.75;4900605;29;20048;-95
2024/02/07 02:18:43;;;;;;;12.90;3.03;;;;;;;4.47;100.00;99673.00;4876162;29;20043;-95
2024/02/07 02:31:42;;;;;;;;;;;;;;;;;;;;;
2024/02/07 02:35:43;;;;;;;;;;;;;;;;;;;;;
2024/02/07 02:43:43;;;;;;;9.20;1.90;;;;;;;4.17;100.00;99667.47;4926702;28;20047;-95
2024/02/07 02:47:26;;;;;;;15.20;2.95;;;;;;;4.18;100.00;99655.22;4954929;28;20062;-95
2024/02/07 02:51:00;;;;;;;19.10;3.08;;;;;;;4.14;100.00;99645.97;4944045;29;20638;-92
2024/02/07 02:54:21;;;;;;;14.07;2.90;;;;;;;3.98;100.00;99641.97;4920115;28;20501;-92
2024/02/07 03:02:17;;;;;;;6.15;2.30;;;;;;;3.71;100.00;99640.56;4878401;29;20064;-95
2024/02/07 03:06:05;;;;;;;5.40;2.65;;;;;;;3.62;100.00;99641.25;4818419;29;20049;-95
2024/02/07 03:13:51;;;;;;;9.98;3.88;;;;;;;3.29;100.00;99628.91;4803951;29;20058;-96
2024/02/07 03:16:20;;;;;;;13.35;3.67;;;;;;;3.37;100.00;99637.94;4815484;29;20050;-95
2024/02/07 03:19:41;;;;;;;12.10;4.85;;;;;;;3.47;100.00;99636.28;4831599;29;20063;-95
2024/02/07 03:23:13;;;;;;;14.55;5.38;;;;;;;3.47;100.00;99626.66;4871290;29;20032;-96
2024/02/07 03:33:48;;;;;;;10.32;3.70;;;;;;;3.52;100.00;99607.19;4898353;28;20050;-95
2024/02/07 03:37:27;;;;;;;12.63;3.95;;;;;;;3.59;100.00;99617.06;4921147;29;20113;-95
2024/02/07 03:40:12;;;;;;;11.02;4.00;;;;;;;3.59;100.00;99616.22;4927221;28;20169;-96
2024/02/07 03:42:58;;;;;;;13.38;4.28;;;;;;;3.66;100.00;99612.19;4926260;28;20052;-96
2024/02/07 03:45:48;;;;;;;11.90;4.20;;;;;;;3.62;100.00;99608.13;4945495;28;20035;-95
2024/02/07 03:48:28;;;;;;;9.82;3.63;;;;;;;3.49;100.00;99605.63;4914707;28;20042;-96
2024/02/07 03:50:54;;;;;;;12.77;4.05;;;;;;;3.44;100.00;99615.63;4921923;28;20051;-96
2024/02/07 03:53:23;;;;;;;10.20;3.30;;;;;;;3.43;100.00;99627.84;4937975;28;20524;-96
2024/02/07 03:55:49;;;;;;;6.40;2.85;;;;;;;3.41;100.00;99634.16;4972515;28;20036;-96
2024/02/07 03:58:18;;;;;;;9.85;3.70;;;;;;;3.46;100.00;99637.22;4931769;28;20035;-96
2024/02/07 04:00:47;;;;;;;11.90;4.10;;;;;;;3.46;100.00;99643.28;4940996;29;20083;-96
2024/02/07 04:03:21;;;;;;;8.00;3.10;;;;;;;3.51;100.00;99634.25;4928278;29;20039;-96
2024/02/07 04:05:57;;;;;;;15.20;3.60;;;;;;;3.41;100.00;99626.31;4965780;28;20063;-96
2024/02/07 04:08:25;;;;;;;8.98;3.10;;;;;;;3.35;100.00;99631.06;4927605;28;20035;-96
2024/02/07 04:10:52;;;;;;;9.75;3.22;;;;;;;3.29;100.00;99626.31;4926942;29;20027;-96
2024/02/07 05:15:25;;;;;;;10.27;4.40;;;;;;;3.24;100.00;99607.53;4955555;28;20039;-96
2024/02/07 05:17:52;;;;;;;8.93;3.47;;;;;;;3.27;100.00;99628.19;4946564;28;20501;-96
2024/02/07 05:20:18;;;;;;;9.60;3.05;;;;;;;3.33;100.00;99622.50;4926830;28;20045;-95
2024/02/07 05:22:47;;;;;;;9.18;3.08;;;;;;;3.34;100.00;99621.53;4927274;28;20493;-96
2024/02/07 05:25:16;;;;;;;5.07;2.90;;;;;;;3.31;100.00;99615.75;4950205;28;20107;-96
2024/02/07 05:27:42;;;;;;;9.35;2.80;;;;;;;3.19;100.00;99610.50;4937852;28;20078;-95
2024/02/07 05:30:14;;;;;;;9.02;2.38;;;;;;;3.17;100.00;99616.81;4941137;28;20053;-96
2024/02/07 05:32:44;;;;;;;11.45;2.53;;;;;;;3.10;100.00;99613.81;4947677;28;20039;-96
2024/02/07 05:35:11;;;;;;;7.53;2.60;;;;;;;3.03;100.00;99623.88;4942059;28;20039;-96
2024/02/07 05:37:39;;;;;;;6.75;2.10;;;;;;;2.94;100.00;99612.38;4944368;28;20069;-96
2024/02/07 05:40:06;;;;;;;5.80;2.42;;;;;;;2.91;100.00;99616.97;4926603;28;20058;-96
2024/02/07 05:42:32;;;;;;;8.30;2.33;;;;;;;2.92;100.00;99619.47;4941071;28;20147;-95
2024/02/07 05:44:57;;;;;;;9.27;2.90;;;;;;;2.96;100.00;99615.69;4925617;29;20069;-96
2024/02/07 05:47:24;;;;;;;10.75;2.45;;;;;;;2.96;100.00;99615.69;4939123;28;20386;-96
2024/02/07 05:49:52;;;;;;;9.10;2.88;;;;;;;2.97;100.00;99621.75;4950542;28;20232;-96
2024/02/07 05:52:19;;;;;;;8.73;3.08;;;;;;;3.00;100.00;99623.28;4928762;28;20035;-96
2024/02/07 05:54:49;;;;;;;13.93;3.03;;;;;;;2.99;100.00;99617.25;4946294;29;20042;-95
2024/02/07 05:57:21;;;;;;;10.75;2.40;;;;;;;2.90;100.00;99620.56;4942309;28;20060;-96
2024/02/07 05:59:47;;;;;;;5.22;2.30;;;;;;;2.84;100.00;99627.88;4946702;28;20042;-95
2024/02/07 06:02:13;;;;;;;13.18;2.88;;;;;;;2.82;100.00;99623.72;4956563;28;20031;-95
2024/02/07 06:04:46;;;;;;;6.20;2.53;;;;;;;2.83;100.00;99614.94;4973764;28;20042;-96
2024/02/07 06:07:12;;;;;;;9.05;2.55;;;;;;;2.90;100.00;99625.78;4925161;28;20042;-96
2024/02/07 06:09:38;;;;;;;4.53;2.15;;;;;;;2.95;100.00;99621.84;4939094;28;20043;-96
2024/02/07 06:12:04;;;;;;;7.05;2.42;;;;;;;2.99;100.00;99606.81;4950464;28;20073;-96
2024/02/07 06:14:31;;;;;;;16.02;2.88;;;;;;;3.04;100.00;99615.09;4941587;28;20035;-96
2024/02/07 06:16:57;;;;;;;8.20;2.50;;;;;;;3.05;100.00;99608.09;4928578;28;20042;-96
2024/02/07 06:19:23;;;;;;;8.43;2.58;;;;;;;3.05;100.00;99605.50;4926230;29;20062;-96
2024/02/07 06:21:52;;;;;;;9.93;2.83;;;;;;;3.14;100.00;99619.66;4940392;28;20045;-96
2024/02/07 06:24:18;;;;;;;9.18;2.45;;;;;;;3.10;100.00;99619.03;4947101;28;20041;-96
2024/02/07 06:26:47;;;;;;;10.63;2.47;;;;;;;3.05;100.00;99611.56;4946072;28;20073;-96
2024/02/07 06:29:13;;;;;;;9.93;2.78;;;;;;;2.98;100.00;99603.34;4955917;28;20084;-96
2024/02/07 06:31:39;;;;;;;13.70;3.75;;;;;;;3.00;100.00;99599.78;4954815;28;20421;-96
2024/02/07 06:34:10;;;;;;;6.93;2.35;;;;;;;2.98;100.00;99592.91;4948039;28;20034;-96
2024/02/07 06:36:36;;;;;;;12.95;2.80;;;;;;;2.97;100.00;99598.25;4944069;28;20092;-96
2024/02/07 06:39:05;;;;;;;7.20;2.20;;;;;;;3.04;100.00;99609.06;4916827;28;20041;-96
2024/02/07 06:41:35;;;;;;;10.05;2.17;;;;;;;3.07;100.00;99616.66;4954216;28;20046;-96
2024/02/07 06:44:03;;;;;;;7.45;2.90;;;;;;;3.10;100.00;99619.03;4925967;28;20042;-96
2024/02/07 06:46:29;;;;;;;3.67;2.22;;;;;;;3.04;100.00;99614.28;4926226;28;20054;-96
2024/02/07 06:48:56;;;;;;;8.45;2.50;;;;;;;2.96;100.00;99613.06;4965459;28;20046;-96
2024/02/07 06:51:23;;;;;;;6.80;2.20;;;;;;;2.99;100.00;99617.25;4927119;28;20078;-96
2024/02/07 06:53:52;;;;;;;9.30;2.60;;;;;;;3.04;100.00;99615.09;4924803;28;20027;-96
2024/02/07 06:56:17;;;;;;;6.55;2.45;;;;;;;3.08;100.00;99627.00;4941116;28;20073;-96
2024/02/07 06:58:43;;;;;;;9.30;2.25;;;;;;;3.12;100.00;99616.31;4933097;28;20090;-96
2024/02/07 07:01:09;;;;;;;6.88;2.05;;;;;;;3.18;100.00;99631.50;4925880;28;20102;-96
2024/02/07 07:03:35;;;;;;;9.52;2.38;;;;;;;3.14;100.00;99630.09;4942407;28;20138;-96
2024/02/07 07:06:04;;;;;;;7.10;2.25;;;;;;;3.13;100.00;99620.56;4925836;28;20038;-96
2024/02/07 07:08:30;;;;;;;8.25;2.33;;;;;;;3.14;100.00;99623.06;4963245;28;20038;-96
2024/02/07 07:10:59;;;;;;;11.18;2.55;;;;;;;3.18;100.00;99615.84;4944250;28;20117;-96
2024/02/07 07:13:25;;;;;;;6.15;2.30;;;;;;;3.16;100.00;99615.13;4921837;28;20035;-96
2024/02/07 07:15:51;;;;;;;7.60;3.35;;;;;;;3.13;100.00;99615.34;4922773;28;20046;-96
2024/02/07 07:18:20;;;;;;;4.18;2.35;;;;;;;3.16;100.00;99615.13;4947066;28;20034;-96
2024/02/07 07:20:50;;;;;;;4.53;1.88;;;;;;;3.17;100.00;99620.22;4942974;28;20094;-96
2024/02/07 07:23:16;;;;;;;8.13;2.47;;;;;;;3.13;100.00;99613.59;4937047;28;20035;-96
2024/02/07 07:25:43;;;;;;;7.85;2.70;;;;;;;3.13;100.00;99624.03;4926916;28;20050;-96
2024/02/07 07:28:14;;;;;;;4.43;1.67;;;;;;;3.16;100.00;99631.63;4943793;28;20122;-96
2024/02/07 07:30:43;;;;;;;9.45;3.20;;;;;;;3.13;100.00;99631.88;4957457;28;20049;-96
2024/02/07 07:33:15;;;;;;;10.93;2.97;;;;;;;3.10;100.00;99630.31;4932605;28;20045;-96
2024/02/07 07:35:46;;;;;;;7.28;2.53;;;;;;;3.09;100.00;99626.03;4940253;28;20038;-96
2024/02/07 07:38:15;;;;;;;7.07;2.40;;;;;;;3.14;100.00;99630.91;4958290;28;20539;-96
2024/02/07 07:40:50;;;;;;;9.77;2.70;;;;;;;3.12;100.00;99629.38;4947309;28;20121;-95
2024/02/07 07:43:16;;;;;;;6.30;2.40;;;;;;;3.13;100.00;99639.69;4939437;28;20481;-95
2024/02/07 07:45:46;;;;;;;10.70;2.30;;;;;;;3.13;100.00;99626.63;4939355;28;20046;-95
2024/02/07 07:48:49;;;;;;;5.00;2.72;;;;;;;3.18;100.00;99631.50;4969190;28;20038;-96
2024/02/07 07:51:19;;;;;;;10.68;2.45;;;;;;;3.15;100.00;99626.53;4951932;28;20078;-96
2024/02/07 07:53:54;;;;;;;3.25;2.05;;;;;;;3.15;100.00;99634.34;4941001;28;20035;-96
2024/02/07 07:56:27;;;;;;;8.10;2.05;;;;;;;3.06;100.00;99631.47;4942356;28;20038;-96
2024/02/07 07:59:02;;;;;;;5.32;2.20;;;;;;;3.00;100.00;99631.94;4957600;28;20173;-96
2024/02/07 08:01:35;;;;;;;4.97;2.20;;;;;;;2.91;100.00;99638.69;4945303;28;20042;-96
2024/02/07 08:04:19;;;;;;;10.85;2.55;;;;;;;2.84;100.00;99629.66;4945185;28;20034;-96
2024/02/07 08:06:50;;;;;;;13.55;4.18;;;;;;;2.81;100.00;99633.34;4975788;28;20046;-96
2024/02/07 08:09:41;;;;;;;6.03;2.15;;;;;;;2.90;100.00;99646.66;4941687;28;20397;-96
2024/02/07 08:12:15;;;;;;;10.95;3.40;;;;;;;2.87;100.00;99629.41;4945256;28;20049;-96
2024/02/07 08:14:46;;;;;;;11.75;4.22;;;;;;;2.94;100.00;99633.25;4944594;28;20043;-96
2024/02/07 08:17:42;;;;;;;24.90;13.80;;;;;;;3.02;100.00;99634.44;4977115;28;20034;-96
2024/02/07 08:20:16;;;;;;;16.33;8.70;;;;;;;3.02;100.00;99627.44;4959815;28;20047;-96
2024/02/07 08:22:49;;;;;;;9.98;4.75;;;;;;;3.03;100.00;99613.44;4960677;28;20039;-96
2024/02/07 08:25:41;;;;;;;10.20;3.50;;;;;;;3.08;100.00;99618.31;4952717;28;20047;-96
2024/02/07 08:28:07;;;;;;;10.27;4.40;;;;;;;3.08;100.00;99623.53;4944576;28;20505;-96
2024/02/07 08:30:35;;;;;;;11.10;3.67;;;;;;;3.12;100.00;99616.31;4952556;28;20133;-96
2024/02/07 08:33:12;;;;;;;9.60;3.30;;;;;;;3.16;100.00;99638.63;4938796;28;20035;-96
2024/02/07 08:35:41;;;;;;;12.32;4.10;;;;;;;3.16;100.00;99644.69;4955604;28;20039;-95
2024/02/07 08:38:12;;;;;;;10.85;5.25;;;;;;;3.15;100.00;99650.03;4964531;28;20038;-96
2024/02/07 08:40:45;;;;;;;9.60;4.70;;;;;;;3.19;100.00;99657.50;4955342;28;20046;-96
2024/02/07 08:43:14;;;;;;;8.13;4.47;;;;;;;3.17;100.00;99654.16;4949547;28;20042;-95
2024/02/07 08:45:53;;;;;;;12.07;4.55;;;;;;;3.27;100.00;99667.38;4959799;28;20664;-95
2024/02/07 08:48:30;;;;;;;9.55;4.63;;;;;;;3.29;100.00;99664.63;4959108;28;20050;-95
2024/02/07 08:51:02;;;;;;;6.65;3.55;;;;;;;3.31;100.00;99663.56;4943904;28;20043;-95
2024/02/07 08:53:35;;;;;;;8.52;3.85;;;;;;;3.29;100.00;99660.25;4941249;28;20111;-95
2024/02/07 08:59:12;;;;;;;8.75;3.90;;;;;;;3.29;100.00;99660.25;4955324;28;20055;-95
2024/02/07 09:01:46;;;;;;;12.45;4.03;;;;;;;3.25;100.00;99658.00;4939184;29;20051;-95
2024/02/07 09:04:25;;;;;;;5.63;3.30;;;;;;;3.25;100.00;99656.19;4938571;28;20035;-96
2024/02/07 09:07:00;;;;;;;5.07;2.63;;;;;;;3.29;100.00;99657.66;4935639;29;20039;-96
2024/02/07 09:09:37;;;;;;;7.72;2.70;;;;;;;3.28;100.00;99663.81;4928938;29;20042;-95
2024/02/07 09:12:10;;;;;;;3.03;1.77;;;;;;;3.34;100.00;99667.75;4940249;28;20048;-95
2024/02/07 09:14:45;;;;;;;5.65;2.08;;;;;;;3.30;100.00;99659.31;4939009;29;20055;-96
2024/02/07 09:17:22;;;;;;;6.60;2.33;;;;;;;3.29;100.00;99662.88;4938081;28;20043;-96
2024/02/07 09:19:52;;;;;;;6.03;1.75;;;;;;;3.26;100.00;99662.25;4924299;29;20101;-96
2024/02/07 09:22:24;;;;;;;7.15;1.92;;;;;;;3.23;100.00;99652.91;4923281;28;20506;-96
2024/02/07 09:24:53;;;;;;;15.02;2.95;;;;;;;3.27;100.00;99653.47;4924177;29;20047;-96
2024/02/07 09:27:22;;;;;;;4.93;2.08;;;;;;;3.26;100.00;99649.22;4944020;29;20524;-95
2024/02/07 09:29:53;;;;;;;5.22;2.38;;;;;;;3.30;100.00;99645.41;4925254;29;20102;-96
2024/02/07 09:32:27;;;;;;;5.80;2.38;;;;;;;3.29;100.00;99638.53;4943081;28;20126;-96
2024/02/07 09:35:06;;;;;;;7.32;3.42;;;;;;;3.31;100.00;99650.50;4952267;28;20099;-96
2024/02/07 09:37:41;;;;;;;9.88;3.88;;;;;;;3.31;100.00;99660.94;4952714;28;20481;-96
2024/02/07 09:40:14;;;;;;;9.65;3.58;;;;;;;3.35;100.00;99656.34;4925608;28;20043;-95
2024/02/07 09:42:52;;;;;;;13.93;4.70;;;;;;;3.45;100.00;99670.38;4932672;28;20039;-96
2024/02/07 09:45:24;;;;;;;10.90;4.18;;;;;;;3.45;100.00;99657.31;4947060;28;20038;-96
2024/02/07 09:48:19;;;;;;;8.10;3.15;;;;;;;3.52;100.00;99652.44;4945563;28;20093;-96
2024/02/07 09:50:51;;;;;;;15.82;3.38;;;;;;;3.52;100.00;99657.66;4951159;28;20082;-96
2024/02/07 09:53:20;;;;;;;14.00;3.65;;;;;;;3.52;100.00;99651.63;4938044;28;20066;-95
2024/02/07 09:59:48;;;;;;;9.77;2.92;;;;;;;3.56;100.00;99658.25;4937057;28;20037;-96
2024/02/07 10:02:23;;;;;;;11.38;3.15;;;;;;;3.57;100.00;99655.53;4920864;28;20062;-96
2024/02/07 10:04:51;;;;;;;10.85;3.03;;;;;;;3.64;100.00;99653.28;4906629;29;20102;-96
2024/02/07 10:07:19;;;;;;;13.20;3.53;;;;;;;3.68;100.00;99646.03;4941951;29;20039;-95
2024/02/07 10:09:51;;;;;;;13.18;3.58;;;;;;;3.80;100.00;99642.47;4957319;28;20034;-96
2024/02/07 10:12:20;;;;;;;11.63;4.50;;;;;;;3.78;100.00;99644.34;4940004;28;20031;-95
2024/02/07 10:14:49;;;;;;;11.02;4.68;;;;;;;3.85;100.00;99655.97;4926315;29;20042;-96
2024/02/07 10:17:18;;;;;;;14.65;5.32;;;;;;;3.83;100.00;99657.06;4922678;29;20043;-95
2024/02/07 10:19:46;;;;;;;14.73;4.68;;;;;;;3.91;100.00;99652.06;4950824;28;20482;-95
2024/02/07 10:22:20;;;;;;;12.35;4.72;;;;;;;4.00;100.00;99647.88;4922618;28;20047;-95
2024/02/07 10:24:46;;;;;;;13.45;4.57;;;;;;;4.07;100.00;99649.09;4903450;29;20586;-95
2024/02/07 10:27:20;;;;;;;13.88;4.30;;;;;;;4.19;100.00;99654.25;4951252;28;20043;-95
2024/02/07 10:29:49;;;;;;;12.55;4.88;;;;;;;4.22;100.00;99648.81;4953456;28;20106;-95
2024/02/07 10:32:18;;;;;;;12.32;4.00;;;;;;;4.21;100.00;99653.22;4905308;28;20031;-96
2024/02/07 10:34:51;;;;;;;11.88;3.53;;;;;;;4.30;100.00;99661.28;4950421;28;20529;-96
2024/02/07 10:37:18;;;;;;;18.83;4.70;;;;;;;4.32;100.00;99656.72;4936116;28;20069;-96
2024/02/07 10:39:49;;;;;;;8.55;3.30;;;;;;;4.32;100.00;99648.88;4934675;28;20043;-95
2024/02/07 10:42:16;;;;;;;14.27;3.80;;;;;;;4.43;100.00;99651.47;4934768;28;20116;-95
2024/02/07 10:44:43;;;;;;;10.55;3.42;;;;;;;4.53;100.00;99650.72;4948008;28;20059;-94
2024/02/07 10:47:12;;;;;;;11.93;4.15;;;;;;;4.62;100.00;99651.78;4926675;28;20051;-95
2024/02/07 10:49:41;;;;;;;12.65;3.88;;;;;;;4.71;100.00;99638.75;4942590;28;20490;-95
2024/02/07 10:52:12;;;;;;;15.82;3.58;;;;;;;4.79;100.00;99648.63;4921793;28;20057;-94
2024/02/07 10:54:48;;;;;;;9.40;3.63;;;;;;;4.77;100.00;99633.97;4941568;28;20039;-95
2024/02/07 10:57:15;;;;;;;11.40;3.70;;;;;;;4.85;100.00;99628.94;4910350;29;20106;-95
2024/02/07 10:59:45;;;;;;;18.25;4.32;;;;;;;4.93;100.00;99628.28;4899522;29;20058;-95
2024/02/07 11:02:17;;;;;;;11.05;3.42;;;;;;;5.02;100.00;99638.00;4920396;28;20038;-95
2024/02/07 11:04:46;;;;;;;14.32;3.65;;;;;;;5.08;100.00;99632.25;4931214;28;20134;-95
2024/02/07 11:07:15;;;;;;;15.00;3.88;;;;;;;5.10;100.00;99637.34;4936405;29;20572;-95
2024/02/07 11:09:44;;;;;;;10.82;3.55;;;;;;;5.19;100.00;99628.72;4948517;28;20043;-93
2024/02/07 11:12:14;;;;;;;11.75;3.90;;;;;;;5.25;100.00;99637.88;4952200;28;20561;-95
2024/02/07 11:15:35;;;;;;;22.05;3.60;;;;;;;5.32;100.00;99643.41;4938440;28;20035;-95
2024/02/07 11:18:37;;;;;;;12.05;3.78;;;;;;;5.38;100.00;99644.69;4907493;28;20032;-95
2024/02/07 11:27:53;;;;;;;;;;;;;;;;;;;;;
2024/02/07 11:31:07;;;;;;;22.40;5.13;;;;;;;5.62;100.00;99647.00;4913170;29;20096;-95
2024/02/07 11:34:11;;;;;;;15.13;3.90;;;;;;;5.67;100.00;99647.41;4896575;29;20044;-93
2024/02/07 11:36:37;;;;;;;12.45;3.83;;;;;;;5.64;100.00;99639.81;4888179;29;20173;-94
2024/02/07 11:39:14;;;;;;;12.82;4.07;;;;;;;5.77;100.00;99639.59;4905308;29;20047;-95
2024/02/07 11:41:41;;;;;;;19.17;4.50;;;;;;;5.81;100.00;99640.97;4875493;29;20048;-95
2024/02/07 11:44:11;;;;;;;14.90;3.53;;;;;;;5.94;100.00;99640.75;4885424;29;20032;-95
2024/02/07 11:46:51;;;;;;;14.13;4.18;;;;;;;6.05;100.00;99639.03;4916847;28;20039;-95
2024/02/07 11:49:20;;;;;;;18.05;3.97;;;;;;;6.10;100.00;99639.44;4932045;28;20035;-95
2024/02/07 11:51:59;;;;;;;19.00;4.00;;;;;;;6.21;100.00;99635.88;4937349;29;20035;-95
2024/02/07 11:54:31;;;;;;;16.73;3.65;;;;;;;6.14;100.00;99632.13;4937867;28;20037;-94
2024/02/07 11:57:01;;;;;;;11.90;4.00;;;;;;;6.14;100.00;99624.25;4942875;28;20050;-94
2024/02/07 11:59:33;;;;;;;17.70;3.97;;;;;;;6.13;100.00;99636.53;4936723;29;20384;-95
2024/02/07 12:01:59;;;;;;;17.33;4.78;;;;;;;6.12;100.00;99631.41;4946477;28;20042;-94
2024/02/07 12:04:28;;;;;;;18.30;4.00;;;;;;;6.18;100.00;99623.84;4923283;28;20039;-93
2024/02/07 12:06:56;;;;;;;11.95;3.78;;;;;;;6.28;100.00;99621.22;4951180;28;20038;-94
2024/02/07 12:09:26;;;;;;;13.85;3.72;;;;;;;6.34;100.00;99619.84;4958813;28;20050;-94
2024/02/07 12:12:27;;;;;;;17.17;4.20;;;;;;;6.53;100.00;99613.78;4923273;28;20052;-95
2024/02/07 12:14:53;;;;;;;15.75;4.43;;;;;;;6.54;100.00;99622.50;4934475;28;20035;-95
2024/02/07 12:17:20;;;;;;;12.38;3.80;;;;;;;6.35;100.00;99618.91;4941034;28;20485;-94
2024/02/07 12:20:44;;;;;;;;;;;;;;;;;;;;;
2024/02/07 12:37:22;;;;;;;8.18;3.15;;;;;;;6.07;100.00;99598.56;4904262;29;20044;-94
2024/02/07 12:40:32;;;;;;;12.60;3.30;;;;;;;6.11;100.00;99606.16;4852873;29;20188;-94
2024/02/07 12:42:59;;;;;;;16.30;3.90;;;;;;;6.09;100.00;99601.03;4865988;29;20045;-94
2024/02/07 12:53:59;;;;;;;10.93;2.03;;;;;;;6.30;100.00;99598.31;4814365;29;20052;-94
2024/02/07 12:57:25;;;;;;;12.10;2.30;;;;;;;6.29;100.00;99580.88;4812450;29;20690;-93
2024/02/07 13:16:54;;;;;;;17.77;2.78;;;;;;;6.41;100.00;99572.88;4837557;29;20121;-94
2024/02/07 13:19:52;;;;;;;6.72;1.80;;;;;;;6.54;100.00;99557.69;4847780;29;20056;-95
2024/02/07 13:22:31;;;;;;;8.45;1.83;;;;;;;6.52;100.00;99570.13;4909348;29;20493;-95
2024/02/07 13:25:26;;;;;;;14.75;2.33;;;;;;;6.45;100.00;99566.38;4922416;29;20036;-94
2024/02/07 13:27:55;;;;;;;11.73;2.05;;;;;;;6.51;100.00;99565.00;4935659;28;20038;-95
2024/02/07 13:30:23;;;;;;;13.27;2.35;;;;;;;6.50;100.00;99558.91;4904863;29;20066;-94
2024/02/07 13:32:49;;;;;;;9.77;2.47;;;;;;;6.47;100.00;99563.63;4912140;28;20035;-94
2024/02/07 13:35:16;;;;;;;13.48;2.00;;;;;;;6.39;100.00;99556.44;4936899;28;20448;-94
2024/02/07 13:37:45;;;;;;;11.45;2.63;;;;;;;6.24;100.00;99545.53;4919791;28;20043;-94
2024/02/07 13:40:12;;;;;;;17.77;3.08;;;;;;;6.42;100.00;99545.66;4924457;29;20038;-94
2024/02/07 13:42:38;;;;;;;5.85;1.85;;;;;;;6.42;100.00;99538.63;4896939;28;20034;-94
2024/02/07 13:45:06;;;;;;;14.30;2.80;;;;;;;6.33;100.00;99534.22;4932093;29;20047;-94
2024/02/07 13:47:32;;;;;;;10.70;2.38;;;;;;;6.27;100.00;99532.97;4944707;28;20079;-94
2024/02/07 13:49:58;;;;;;;9.05;2.67;;;;;;;6.23;100.00;99536.03;4925666;29;20050;-94
2024/02/07 13:52:25;;;;;;;14.85;2.55;;;;;;;6.29;100.00;99538.91;4925089;28;20027;-95
2024/02/07 13:54:51;;;;;;;17.40;3.63;;;;;;;6.27;100.00;99543.47;4943137;28;20038;-95
2024/02/07 13:57:19;;;;;;;20.42;2.83;;;;;;;6.30;100.00;99539.75;4933262;28;20155;-94
2024/02/07 13:59:46;;;;;;;13.77;3.38;;;;;;;6.22;100.00;99534.34;4943651;28;20151;-94
2024/02/07 14:02:12;;;;;;;12.45;3.22;;;;;;;6.30;100.00;99543.19;4960454;28;20035;-95
2024/02/07 14:04:38;;;;;;;19.52;3.97;;;;;;;6.24;100.00;99540.28;4940347;28;20047;-94
2024/02/07 14:07:04;;;;;;;15.57;3.28;;;;;;;6.26;100.00;99541.00;4957891;28;20060;-94
2024/02/07 14:09:39;;;;;;;16.00;2.97;;;;;;;6.24;100.00;99521.94;4927500;28;20043;-94
2024/02/07 14:12:06;;;;;;;11.65;3.30;;;;;;;6.24;100.00;99528.00;4930586;28;20043;-94
2024/02/07 14:14:34;;;;;;;10.02;2.60;;;;;;;6.26;100.00;99520.81;4951175;28;20047;-94
2024/02/07 14:17:01;;;;;;;16.55;3.03;;;;;;;6.29;100.00;99519.72;4938508;28;20092;-95
2024/02/07 14:19:27;;;;;;;14.23;2.70;;;;;;;6.30;100.00;99516.94;4941804;28;20592;-94
2024/02/07 14:21:53;;;;;;;12.13;3.05;;;;;;;6.32;100.00;99506.31;4923746;28;20043;-94
2024/02/07 14:24:28;;;;;;;9.63;2.97;;;;;;;6.37;100.00;99506.69;4941604;28;20030;-95
2024/02/07 14:26:55;;;;;;;10.15;2.25;;;;;;;6.30;100.00;99495.13;4921198;28;20177;-94
2024/02/07 14:29:21;;;;;;;14.65;3.55;;;;;;;6.32;100.00;99512.38;4929521;28;20831;-93
2024/02/07 14:31:51;;;;;;;7.97;1.58;;;;;;;6.00;100.00;99499.53;4940793;28;20038;-94
2024/02/07 14:34:17;;;;;;;11.38;2.10;;;;;;;5.95;100.00;99499.94;4964046;28;20551;-94
2024/02/07 14:36:43;;;;;;;7.97;2.17;;;;;;;5.80;100.00;99494.25;4941074;28;20050;-94
2024/02/07 14:39:09;;;;;;;10.20;2.45;;;;;;;5.90;100.00;99492.50;4926217;28;20038;-94
2024/02/07 14:41:35;;;;;;;10.95;1.88;;;;;;;5.84;100.00;99472.88;4944643;28;20041;-94
2024/02/07 14:44:06;;;;;;;16.70;2.10;;;;;;;5.83;100.00;99463.34;4947220;28;20069;-95
2024/02/07 14:46:33;;;;;;;8.20;1.67;;;;;;;5.81;100.00;99461.84;4944052;28;20062;-94
2024/02/07 14:48:59;;;;;;;11.13;1.92;;;;;;;5.80;100.00;99471.50;4923244;28;20042;-95
2024/02/07 14:51:25;;;;;;;7.78;1.45;;;;;;;5.82;100.00;99481.84;4949965;28;20026;-94
2024/02/07 14:53:51;;;;;;;14.88;1.85;;;;;;;5.74;100.00;99477.28;4931963;28;20056;-95
2024/02/07 14:56:43;;;;;;;11.25;2.40;;;;;;;5.90;100.00;99470.66;4930198;28;20039;-94
2024/02/07 15:03:19;;;;;;;12.30;2.17;;;;;;;5.92;100.00;99460.88;4937515;28;20034;-95
2024/02/07 15:05:45;;;;;;;13.75;2.88;;;;;;;5.80;100.00;99465.41;4941085;28;20059;-95
2024/02/07 15:08:12;;;;;;;11.30;2.30;;;;;;;5.83;100.00;99459.88;4938561;28;20031;-96
2024/02/07 15:11:08;;;;;;;;;;;;;;;;;;;;;
2024/02/07 15:14:58;;;;;;;16.33;2.42;;;;;;;5.84;100.00;99449.25;4974830;28;20050;-95
2024/02/07 15:17:27;;;;;;;13.43;2.58;;;;;;;5.71;100.00;99443.47;4925603;29;20023;-95
2024/02/07 15:19:54;;;;;;;13.57;2.70;;;;;;;5.66;100.00;99450.91;4956552;28;20065;-95
2024/02/07 15:22:55;;;;;;;17.98;4.10;;;;;;;5.82;100.00;99453.84;4953966;28;20121;-95
2024/02/07 15:30:09;;;;;;;9.65;2.60;;;;;;;5.71;100.00;99446.94;4945995;28;20045;-94
2024/02/07 15:42:42;;;;;;;;;;;;;;;;;;;;;
2024/02/07 16:03:23;;;;;;;14.60;2.30;;;;;;;5.67;100.00;99426.38;4936885;29;20050;-95
2024/02/07 16:09:57;;;;;;;19.65;2.40;;;;;;;5.64;100.00;99424.84;4912393;29;20135;-95
2024/02/07 16:13:41;;;;;;;;;;;;;;;;;;;;;
2024/02/07 16:34:40;;;;;;;19.85;4.03;;;;;;;5.62;100.00;99415.47;4839168;29;20040;-96
2024/02/07 16:37:45;;;;;;;11.52;2.97;;;;;;;5.64;100.00;99406.47;4822846;29;20046;-95
2024/02/07 16:40:11;;;;;;;15.35;4.88;;;;;;;5.60;100.00;99402.50;4797258;29;20042;-96
2024/02/07 16:42:37;;;;;;;13.20;4.55;;;;;;;5.61;100.00;99390.19;4800636;29;20062;-96
2024/02/07 16:45:04;;;;;;;17.15;4.18;;;;;;;5.59;100.00;99391.16;4889224;28;20138;-96
2024/02/07 16:47:34;;;;;;;11.80;4.30;;;;;;;5.63;100.00;99393.50;4926963;28;20058;-96
2024/02/07 16:50:00;;;;;;;23.83;5.68;;;;;;;5.63;100.00;99380.41;4937271;29;20043;-95
2024/02/07 16:52:26;;;;;;;22.67;5.97;;;;;;;5.65;100.00;99379.31;4922440;28;20034;-95
2024/02/07 16:54:53;;;;;;;24.55;7.75;;;;;;;5.66;100.00;99380.13;4920544;28;20047;-96
2024/02/07 16:57:19;;;;;;;19.50;7.18;;;;;;;5.62;100.00;99390.09;4908029;29;20482;-95
2024/02/07 16:59:45;;;;;;;22.27;8.65;;;;;;;5.64;100.00;99387.31;4905979;28;20142;-91
2024/02/07 17:02:14;;;;;;;16.67;8.52;;;;;;;5.66;100.00;99393.25;4952993;28;20038;-95